sensor_id;sensor_type;location;lat;lon;timestamp;P1;durP1;ratioP1;P2;durP2;ratioP2
49812;SDS011;35706;52.100;5.056;2023-06-05T00:00:20;2.05;;;0.60;;
49812;SDS011;35706;52.100;5.056;2023-06-05T00:01:21;1.70;;;0.70;;
49812;SDS011;35706;52.100;5.056;2023-06-05T00:02:21;2.80;;;0.80;;
49812;SDS011;35706;52.100;5.056;2023-06-05T00:03:22;1.92;;;0.63;;
49812;SDS011;35706;52.100;5.056;2023-06-05T00:04:24;1.45;;;0.70;;
49812;SDS011;35706;52.100;5.056;2023-06-05T00:05:24;2.45;;;0.80;;
49812;SDS011;35706;52.100;5.056;2023-06-05T00:06:26;4.50;;;0.80;;
49812;SDS011;35706;52.100;5.056;2023-06-05T00:07:26;3.58;;;0.70;;
49812;SDS011;35706;52.100;5.056;2023-06-05T00:08:27;2.75;;;0.70;;
49812;SDS011;35706;52.100;5.056;2023-06-05T00:09:27;3.78;;;1.00;;
49812;SDS011;35706;52.100;5.056;2023-06-05T00:10:27;7.43;;;0.70;;
49812;SDS011;35706;52.100;5.056;2023-06-05T00:11:28;2.92;;;0.80;;
49812;SDS011;35706;52.100;5.056;2023-06-05T00:12:28;5.10;;;0.80;;
49812;SDS011;35706;52.100;5.056;2023-06-05T00:13:28;2.55;;;0.70;;
49812;SDS011;35706;52.100;5.056;2023-06-05T00:14:28;3.03;;;0.63;;
49812;SDS011;35706;52.100;5.056;2023-06-05T00:15:29;2.85;;;0.70;;
49812;SDS011;35706;52.100;5.056;2023-06-05T00:16:33;2.95;;;0.70;;
49812;SDS011;35706;52.100;5.056;2023-06-05T00:17:34;2.55;;;0.80;;
49812;SDS011;35706;52.100;5.056;2023-06-05T00:18:34;2.05;;;0.80;;
49812;SDS011;35706;52.100;5.056;2023-06-05T00:19:35;2.80;;;0.80;;
49812;SDS011;35706;52.100;5.056;2023-06-05T00:20:35;2.40;;;0.70;;
49812;SDS011;35706;52.100;5.056;2023-06-05T00:21:35;2.60;;;0.70;;
49812;SDS011;35706;52.100;5.056;2023-06-05T00:22:36;2.30;;;0.75;;
49812;SDS011;35706;52.100;5.056;2023-06-05T00:23:37;5.50;;;0.80;;
49812;SDS011;35706;52.100;5.056;2023-06-05T00:24:37;1.60;;;0.80;;
49812;SDS011;35706;52.100;5.056;2023-06-05T00:25:39;3.45;;;0.70;;
49812;SDS011;35706;52.100;5.056;2023-06-05T00:26:39;1.52;;;0.70;;
49812;SDS011;35706;52.100;5.056;2023-06-05T00:27:40;2.53;;;0.77;;
49812;SDS011;35706;52.100;5.056;2023-06-05T00:28:40;4.25;;;0.80;;
49812;SDS011;35706;52.100;5.056;2023-06-05T00:29:41;3.03;;;1.02;;
49812;SDS011;35706;52.100;5.056;2023-06-05T00:30:41;2.42;;;0.77;;
49812;SDS011;35706;52.100;5.056;2023-06-05T00:31:44;2.80;;;0.80;;
49812;SDS011;35706;52.100;5.056;2023-06-05T00:32:46;3.53;;;0.80;;
49812;SDS011;35706;52.100;5.056;2023-06-05T00:33:46;2.38;;;0.70;;
49812;SDS011;35706;52.100;5.056;2023-06-05T00:34:46;3.17;;;0.80;;
49812;SDS011;35706;52.100;5.056;2023-06-05T00:35:50;2.08;;;0.80;;
49812;SDS011;35706;52.100;5.056;2023-06-05T00:36:50;3.65;;;0.80;;
49812;SDS011;35706;52.100;5.056;2023-06-05T00:37:51;3.63;;;1.00;;
49812;SDS011;35706;52.100;5.056;2023-06-05T00:38:52;2.42;;;0.80;;
49812;SDS011;35706;52.100;5.056;2023-06-05T00:39:52;3.33;;;0.90;;
49812;SDS011;35706;52.100;5.056;2023-06-05T00:40:52;3.03;;;1.02;;
49812;SDS011;35706;52.100;5.056;2023-06-05T00:41:53;5.18;;;0.90;;
49812;SDS011;35706;52.100;5.056;2023-06-05T00:42:53;2.20;;;0.70;;
49812;SDS011;35706;52.100;5.056;2023-06-05T00:43:54;2.42;;;0.77;;
49812;SDS011;35706;52.100;5.056;2023-06-05T00:44:54;3.45;;;0.70;;
49812;SDS011;35706;52.100;5.056;2023-06-05T00:45:56;2.67;;;0.70;;
49812;SDS011;35706;52.100;5.056;2023-06-05T00:47:00;4.10;;;0.90;;
49812;SDS011;35706;52.100;5.056;2023-06-05T00:48:02;4.22;;;0.80;;
49812;SDS011;35706;52.100;5.056;2023-06-05T00:49:02;4.00;;;0.80;;
49812;SDS011;35706;52.100;5.056;2023-06-05T00:50:03;5.25;;;1.00;;
49812;SDS011;35706;52.100;5.056;2023-06-05T00:51:06;2.05;;;0.70;;
49812;SDS011;35706;52.100;5.056;2023-06-05T00:52:07;2.53;;;0.80;;
49812;SDS011;35706;52.100;5.056;2023-06-05T00:53:07;5.22;;;1.00;;
49812;SDS011;35706;52.100;5.056;2023-06-05T00:54:08;2.50;;;0.98;;
49812;SDS011;35706;52.100;5.056;2023-06-05T00:55:09;5.05;;;0.90;;
49812;SDS011;35706;52.100;5.056;2023-06-05T00:56:10;4.30;;;0.90;;
49812;SDS011;35706;52.100;5.056;2023-06-05T00:57:11;3.17;;;0.73;;
49812;SDS011;35706;52.100;5.056;2023-06-05T00:58:11;2.00;;;0.93;;
49812;SDS011;35706;52.100;5.056;2023-06-05T00:59:11;6.65;;;1.00;;
49812;SDS011;35706;52.100;5.056;2023-06-05T01:00:14;3.88;;;0.80;;
49812;SDS011;35706;52.100;5.056;2023-06-05T01:01:15;6.20;;;1.00;;
49812;SDS011;35706;52.100;5.056;2023-06-05T01:02:17;3.80;;;0.90;;
49812;SDS011;35706;52.100;5.056;2023-06-05T01:03:17;5.35;;;0.80;;
49812;SDS011;35706;52.100;5.056;2023-06-05T01:04:17;3.28;;;0.93;;
49812;SDS011;35706;52.100;5.056;2023-06-05T01:05:17;2.90;;;0.90;;
49812;SDS011;35706;52.100;5.056;2023-06-05T01:06:18;2.72;;;0.70;;
49812;SDS011;35706;52.100;5.056;2023-06-05T01:07:19;4.40;;;1.13;;
49812;SDS011;35706;52.100;5.056;2023-06-05T01:08:21;6.35;;;0.80;;
49812;SDS011;35706;52.100;5.056;2023-06-05T01:09:25;3.30;;;0.80;;
49812;SDS011;35706;52.100;5.056;2023-06-05T01:10:26;4.20;;;0.90;;
49812;SDS011;35706;52.100;5.056;2023-06-05T01:14:08;4.72;;;1.05;;
49812;SDS011;35706;52.100;5.056;2023-06-05T01:15:16;5.05;;;0.90;;
49812;SDS011;35706;52.100;5.056;2023-06-05T01:16:18;3.13;;;0.90;;
49812;SDS011;35706;52.100;5.056;2023-06-05T01:17:19;2.72;;;0.90;;
49812;SDS011;35706;52.100;5.056;2023-06-05T01:18:20;1.50;;;0.90;;
49812;SDS011;35706;52.100;5.056;2023-06-05T01:19:23;2.17;;;0.80;;
49812;SDS011;35706;52.100;5.056;2023-06-05T01:20:33;2.85;;;0.93;;
49812;SDS011;35706;52.100;5.056;2023-06-05T01:21:34;4.78;;;0.80;;
49812;SDS011;35706;52.100;5.056;2023-06-05T01:22:36;2.28;;;1.00;;
49812;SDS011;35706;52.100;5.056;2023-06-05T01:23:37;7.20;;;0.88;;
49812;SDS011;35706;52.100;5.056;2023-06-05T01:24:37;5.88;;;0.95;;
49812;SDS011;35706;52.100;5.056;2023-06-05T01:25:40;2.25;;;1.00;;
49812;SDS011;35706;52.100;5.056;2023-06-05T01:28:04;3.80;;;1.00;;
49812;SDS011;35706;52.100;5.056;2023-06-05T01:29:09;3.20;;;1.05;;
49812;SDS011;35706;52.100;5.056;2023-06-05T01:30:16;4.18;;;0.90;;
49812;SDS011;35706;52.100;5.056;2023-06-05T01:31:24;4.07;;;1.10;;
49812;SDS011;35706;52.100;5.056;2023-06-05T01:33:43;2.95;;;1.00;;
49812;SDS011;35706;52.100;5.056;2023-06-05T01:34:49;2.35;;;1.00;;
49812;SDS011;35706;52.100;5.056;2023-06-05T01:35:53;5.30;;;1.15;;
49812;SDS011;35706;52.100;5.056;2023-06-05T01:36:55;2.92;;;1.20;;
49812;SDS011;35706;52.100;5.056;2023-06-05T01:37:57;4.90;;;0.90;;
49812;SDS011;35706;52.100;5.056;2023-06-05T01:38:59;2.67;;;1.00;;
49812;SDS011;35706;52.100;5.056;2023-06-05T01:40:01;2.78;;;1.00;;
49812;SDS011;35706;52.100;5.056;2023-06-05T01:41:03;2.85;;;1.17;;
49812;SDS011;35706;52.100;5.056;2023-06-05T01:42:04;4.35;;;1.30;;
49812;SDS011;35706;52.100;5.056;2023-06-05T01:43:06;4.57;;;1.15;;
49812;SDS011;35706;52.100;5.056;2023-06-05T01:44:08;5.72;;;1.67;;
49812;SDS011;35706;52.100;5.056;2023-06-05T01:45:14;4.32;;;1.27;;
49812;SDS011;35706;52.100;5.056;2023-06-05T01:46:19;6.95;;;1.45;;
49812;SDS011;35706;52.100;5.056;2023-06-05T01:47:21;20.75;;;1.42;;
49812;SDS011;35706;52.100;5.056;2023-06-05T01:48:22;3.45;;;1.00;;
49812;SDS011;35706;52.100;5.056;2023-06-05T01:49:27;4.18;;;1.10;;
49812;SDS011;35706;52.100;5.056;2023-06-05T01:50:28;5.82;;;1.13;;
49812;SDS011;35706;52.100;5.056;2023-06-05T01:51:33;4.72;;;0.93;;
49812;SDS011;35706;52.100;5.056;2023-06-05T01:52:35;4.70;;;0.95;;
49812;SDS011;35706;52.100;5.056;2023-06-05T01:53:35;3.13;;;0.93;;
49812;SDS011;35706;52.100;5.056;2023-06-05T01:54:35;7.55;;;0.98;;
49812;SDS011;35706;52.100;5.056;2023-06-05T01:55:36;4.95;;;1.50;;
49812;SDS011;35706;52.100;5.056;2023-06-05T01:56:39;2.92;;;1.15;;
49812;SDS011;35706;52.100;5.056;2023-06-05T01:57:39;3.92;;;1.10;;
49812;SDS011;35706;52.100;5.056;2023-06-05T01:58:40;2.55;;;1.20;;
49812;SDS011;35706;52.100;5.056;2023-06-05T01:59:40;6.45;;;1.27;;
49812;SDS011;35706;52.100;5.056;2023-06-05T02:00:40;4.20;;;1.45;;
49812;SDS011;35706;52.100;5.056;2023-06-05T02:01:42;4.65;;;1.15;;
49812;SDS011;35706;52.100;5.056;2023-06-05T02:02:47;8.68;;;0.98;;
49812;SDS011;35706;52.100;5.056;2023-06-05T02:03:49;2.78;;;1.20;;
49812;SDS011;35706;52.100;5.056;2023-06-05T02:04:49;2.33;;;1.17;;
49812;SDS011;35706;52.100;5.056;2023-06-05T02:05:50;4.43;;;1.42;;
49812;SDS011;35706;52.100;5.056;2023-06-05T02:06:54;6.20;;;1.00;;
49812;SDS011;35706;52.100;5.056;2023-06-05T02:07:54;4.40;;;1.38;;
49812;SDS011;35706;52.100;5.056;2023-06-05T02:08:58;5.25;;;1.30;;
49812;SDS011;35706;52.100;5.056;2023-06-05T02:09:58;4.85;;;1.40;;
49812;SDS011;35706;52.100;5.056;2023-06-05T02:11:01;6.13;;;1.38;;
49812;SDS011;35706;52.100;5.056;2023-06-05T02:12:02;6.35;;;1.10;;
49812;SDS011;35706;52.100;5.056;2023-06-05T02:13:03;2.55;;;1.13;;
49812;SDS011;35706;52.100;5.056;2023-06-05T02:14:04;5.57;;;1.00;;
49812;SDS011;35706;52.100;5.056;2023-06-05T02:15:06;11.02;;;1.38;;
49812;SDS011;35706;52.100;5.056;2023-06-05T02:16:09;3.55;;;1.10;;
49812;SDS011;35706;52.100;5.056;2023-06-05T02:17:10;2.53;;;1.20;;
49812;SDS011;35706;52.100;5.056;2023-06-05T02:18:13;2.80;;;1.58;;
49812;SDS011;35706;52.100;5.056;2023-06-05T02:19:15;2.30;;;1.08;;
49812;SDS011;35706;52.100;5.056;2023-06-05T02:20:18;3.72;;;1.25;;
49812;SDS011;35706;52.100;5.056;2023-06-05T02:21:25;4.78;;;1.35;;
49812;SDS011;35706;52.100;5.056;2023-06-05T02:22:25;6.25;;;1.20;;
49812;SDS011;35706;52.100;5.056;2023-06-05T02:23:25;3.75;;;1.20;;
49812;SDS011;35706;52.100;5.056;2023-06-05T02:24:26;4.35;;;1.20;;
49812;SDS011;35706;52.100;5.056;2023-06-05T02:25:27;3.08;;;1.30;;
49812;SDS011;35706;52.100;5.056;2023-06-05T02:26:28;8.00;;;1.73;;
49812;SDS011;35706;52.100;5.056;2023-06-05T02:27:28;3.38;;;1.30;;
49812;SDS011;35706;52.100;5.056;2023-06-05T02:28:28;4.75;;;1.40;;
49812;SDS011;35706;52.100;5.056;2023-06-05T02:29:29;7.25;;;1.65;;
49812;SDS011;35706;52.100;5.056;2023-06-05T02:30:29;6.40;;;1.65;;
49812;SDS011;35706;52.100;5.056;2023-06-05T02:31:30;5.90;;;1.35;;
49812;SDS011;35706;52.100;5.056;2023-06-05T02:32:30;6.30;;;1.50;;
49812;SDS011;35706;52.100;5.056;2023-06-05T02:33:31;4.45;;;1.80;;
49812;SDS011;35706;52.100;5.056;2023-06-05T02:34:31;3.47;;;1.67;;
49812;SDS011;35706;52.100;5.056;2023-06-05T02:35:32;2.78;;;1.38;;
49812;SDS011;35706;52.100;5.056;2023-06-05T02:36:33;4.75;;;1.55;;
49812;SDS011;35706;52.100;5.056;2023-06-05T02:37:35;4.90;;;1.33;;
49812;SDS011;35706;52.100;5.056;2023-06-05T02:38:37;6.28;;;1.42;;
49812;SDS011;35706;52.100;5.056;2023-06-05T02:39:38;7.25;;;1.42;;
49812;SDS011;35706;52.100;5.056;2023-06-05T02:40:38;4.05;;;1.88;;
49812;SDS011;35706;52.100;5.056;2023-06-05T02:41:39;5.07;;;1.30;;
49812;SDS011;35706;52.100;5.056;2023-06-05T02:42:39;5.03;;;1.63;;
49812;SDS011;35706;52.100;5.056;2023-06-05T02:43:40;4.68;;;1.33;;
49812;SDS011;35706;52.100;5.056;2023-06-05T02:44:40;3.63;;;1.52;;
49812;SDS011;35706;52.100;5.056;2023-06-05T02:45:41;4.15;;;1.60;;
49812;SDS011;35706;52.100;5.056;2023-06-05T02:46:41;3.35;;;1.92;;
49812;SDS011;35706;52.100;5.056;2023-06-05T02:47:41;6.93;;;1.75;;
49812;SDS011;35706;52.100;5.056;2023-06-05T02:48:42;3.63;;;1.35;;
49812;SDS011;35706;52.100;5.056;2023-06-05T02:49:42;2.88;;;1.48;;
49812;SDS011;35706;52.100;5.056;2023-06-05T02:50:42;5.93;;;1.40;;
49812;SDS011;35706;52.100;5.056;2023-06-05T02:51:42;4.93;;;1.77;;
49812;SDS011;35706;52.100;5.056;2023-06-05T02:52:43;6.47;;;1.70;;
49812;SDS011;35706;52.100;5.056;2023-06-05T02:53:43;3.72;;;1.20;;
49812;SDS011;35706;52.100;5.056;2023-06-05T02:54:43;5.47;;;1.90;;
49812;SDS011;35706;52.100;5.056;2023-06-05T02:55:44;2.80;;;1.75;;
49812;SDS011;35706;52.100;5.056;2023-06-05T02:56:44;2.85;;;1.35;;
49812;SDS011;35706;52.100;5.056;2023-06-05T02:57:45;4.55;;;1.40;;
49812;SDS011;35706;52.100;5.056;2023-06-05T02:58:48;5.10;;;1.17;;
49812;SDS011;35706;52.100;5.056;2023-06-05T02:59:49;3.90;;;2.03;;
49812;SDS011;35706;52.100;5.056;2023-06-05T03:00:49;4.30;;;1.30;;
49812;SDS011;35706;52.100;5.056;2023-06-05T03:01:50;7.97;;;2.08;;
49812;SDS011;35706;52.100;5.056;2023-06-05T03:02:51;2.67;;;1.33;;
49812;SDS011;35706;52.100;5.056;2023-06-05T03:03:52;6.65;;;1.65;;
49812;SDS011;35706;52.100;5.056;2023-06-05T03:04:53;2.00;;;1.58;;
49812;SDS011;35706;52.100;5.056;2023-06-05T03:05:56;4.13;;;1.70;;
49812;SDS011;35706;52.100;5.056;2023-06-05T03:07:07;2.72;;;1.58;;
49812;SDS011;35706;52.100;5.056;2023-06-05T03:08:09;6.07;;;1.50;;
49812;SDS011;35706;52.100;5.056;2023-06-05T03:09:10;2.67;;;1.15;;
49812;SDS011;35706;52.100;5.056;2023-06-05T03:10:11;2.38;;;1.27;;
49812;SDS011;35706;52.100;5.056;2023-06-05T03:11:11;3.15;;;1.60;;
49812;SDS011;35706;52.100;5.056;2023-06-05T03:12:11;5.28;;;1.80;;
49812;SDS011;35706;52.100;5.056;2023-06-05T03:13:12;2.40;;;1.67;;
49812;SDS011;35706;52.100;5.056;2023-06-05T03:14:12;5.15;;;1.80;;
49812;SDS011;35706;52.100;5.056;2023-06-05T03:15:12;4.13;;;1.40;;
49812;SDS011;35706;52.100;5.056;2023-06-05T03:16:13;4.75;;;1.55;;
49812;SDS011;35706;52.100;5.056;2023-06-05T03:17:13;4.45;;;2.05;;
49812;SDS011;35706;52.100;5.056;2023-06-05T03:18:14;7.22;;;2.25;;
49812;SDS011;35706;52.100;5.056;2023-06-05T03:19:14;5.00;;;1.73;;
49812;SDS011;35706;52.100;5.056;2023-06-05T03:20:17;3.67;;;1.40;;
49812;SDS011;35706;52.100;5.056;2023-06-05T03:21:18;4.38;;;1.77;;
49812;SDS011;35706;52.100;5.056;2023-06-05T03:22:18;2.83;;;1.70;;
49812;SDS011;35706;52.100;5.056;2023-06-05T03:23:18;4.65;;;1.88;;
49812;SDS011;35706;52.100;5.056;2023-06-05T03:24:19;5.97;;;1.92;;
49812;SDS011;35706;52.100;5.056;2023-06-05T03:25:19;4.72;;;1.98;;
49812;SDS011;35706;52.100;5.056;2023-06-05T03:26:20;5.45;;;2.05;;
49812;SDS011;35706;52.100;5.056;2023-06-05T03:27:22;4.95;;;1.65;;
49812;SDS011;35706;52.100;5.056;2023-06-05T03:28:23;3.35;;;2.10;;
49812;SDS011;35706;52.100;5.056;2023-06-05T03:29:23;5.32;;;1.65;;
49812;SDS011;35706;52.100;5.056;2023-06-05T03:30:24;3.90;;;2.05;;
49812;SDS011;35706;52.100;5.056;2023-06-05T03:31:24;3.58;;;2.20;;
49812;SDS011;35706;52.100;5.056;2023-06-05T03:32:25;4.35;;;2.10;;
49812;SDS011;35706;52.100;5.056;2023-06-05T03:33:25;2.67;;;2.13;;
49812;SDS011;35706;52.100;5.056;2023-06-05T03:34:25;5.03;;;2.38;;
49812;SDS011;35706;52.100;5.056;2023-06-05T03:35:25;3.08;;;1.92;;
49812;SDS011;35706;52.100;5.056;2023-06-05T03:36:26;5.28;;;2.78;;
49812;SDS011;35706;52.100;5.056;2023-06-05T03:37:28;3.90;;;2.35;;
49812;SDS011;35706;52.100;5.056;2023-06-05T03:38:28;3.58;;;2.20;;
49812;SDS011;35706;52.100;5.056;2023-06-05T03:39:28;2.03;;;1.55;;
49812;SDS011;35706;52.100;5.056;2023-06-05T03:40:29;4.50;;;2.10;;
49812;SDS011;35706;52.100;5.056;2023-06-05T03:41:29;5.93;;;2.38;;
49812;SDS011;35706;52.100;5.056;2023-06-05T03:42:30;3.28;;;1.95;;
49812;SDS011;35706;52.100;5.056;2023-06-05T03:43:30;3.63;;;2.03;;
49812;SDS011;35706;52.100;5.056;2023-06-05T03:44:30;3.70;;;2.03;;
49812;SDS011;35706;52.100;5.056;2023-06-05T03:45:31;4.38;;;1.70;;
49812;SDS011;35706;52.100;5.056;2023-06-05T03:46:31;4.78;;;1.83;;
49812;SDS011;35706;52.100;5.056;2023-06-05T03:47:32;7.85;;;1.92;;
49812;SDS011;35706;52.100;5.056;2023-06-05T03:48:34;5.00;;;1.80;;
49812;SDS011;35706;52.100;5.056;2023-06-05T03:49:34;4.75;;;1.80;;
49812;SDS011;35706;52.100;5.056;2023-06-05T03:50:35;3.15;;;1.95;;
49812;SDS011;35706;52.100;5.056;2023-06-05T03:51:38;5.13;;;1.92;;
49812;SDS011;35706;52.100;5.056;2023-06-05T03:52:39;5.63;;;2.35;;
49812;SDS011;35706;52.100;5.056;2023-06-05T03:53:39;6.05;;;2.10;;
49812;SDS011;35706;52.100;5.056;2023-06-05T03:54:43;4.35;;;2.25;;
49812;SDS011;35706;52.100;5.056;2023-06-05T03:55:47;7.80;;;2.15;;
49812;SDS011;35706;52.100;5.056;2023-06-05T03:56:49;2.20;;;1.83;;
49812;SDS011;35706;52.100;5.056;2023-06-05T03:57:50;4.43;;;2.30;;
49812;SDS011;35706;52.100;5.056;2023-06-05T03:58:51;5.70;;;2.33;;
49812;SDS011;35706;52.100;5.056;2023-06-05T03:59:51;6.18;;;2.20;;
49812;SDS011;35706;52.100;5.056;2023-06-05T04:00:51;3.08;;;1.92;;
49812;SDS011;35706;52.100;5.056;2023-06-05T04:01:54;4.60;;;2.47;;
49812;SDS011;35706;52.100;5.056;2023-06-05T04:02:55;5.95;;;2.42;;
49812;SDS011;35706;52.100;5.056;2023-06-05T04:03:58;5.82;;;2.10;;
49812;SDS011;35706;52.100;5.056;2023-06-05T04:04:58;7.32;;;2.33;;
49812;SDS011;35706;52.100;5.056;2023-06-05T04:05:58;4.57;;;1.85;;
49812;SDS011;35706;52.100;5.056;2023-06-05T04:07:00;4.97;;;1.80;;
49812;SDS011;35706;52.100;5.056;2023-06-05T04:08:01;6.55;;;2.42;;
49812;SDS011;35706;52.100;5.056;2023-06-05T04:09:02;6.43;;;2.38;;
49812;SDS011;35706;52.100;5.056;2023-06-05T04:10:10;3.92;;;2.08;;
49812;SDS011;35706;52.100;5.056;2023-06-05T04:11:11;7.00;;;2.38;;
49812;SDS011;35706;52.100;5.056;2023-06-05T04:12:11;5.13;;;1.98;;
49812;SDS011;35706;52.100;5.056;2023-06-05T04:13:13;7.65;;;2.03;;
49812;SDS011;35706;52.100;5.056;2023-06-05T04:14:14;4.78;;;2.72;;
49812;SDS011;35706;52.100;5.056;2023-06-05T04:15:14;6.30;;;2.35;;
49812;SDS011;35706;52.100;5.056;2023-06-05T04:16:14;7.57;;;2.40;;
49812;SDS011;35706;52.100;5.056;2023-06-05T04:17:15;6.63;;;1.83;;
49812;SDS011;35706;52.100;5.056;2023-06-05T04:18:15;3.10;;;1.80;;
49812;SDS011;35706;52.100;5.056;2023-06-05T04:19:15;5.70;;;2.30;;
49812;SDS011;35706;52.100;5.056;2023-06-05T04:20:16;6.38;;;1.67;;
49812;SDS011;35706;52.100;5.056;2023-06-05T04:21:16;4.57;;;1.70;;
49812;SDS011;35706;52.100;5.056;2023-06-05T04:22:17;7.72;;;2.03;;
49812;SDS011;35706;52.100;5.056;2023-06-05T04:23:17;6.05;;;2.10;;
49812;SDS011;35706;52.100;5.056;2023-06-05T04:24:17;4.72;;;1.67;;
49812;SDS011;35706;52.100;5.056;2023-06-05T04:25:18;6.40;;;2.10;;
49812;SDS011;35706;52.100;5.056;2023-06-05T04:26:18;6.63;;;2.08;;
49812;SDS011;35706;52.100;5.056;2023-06-05T04:27:19;7.55;;;1.85;;
49812;SDS011;35706;52.100;5.056;2023-06-05T04:28:19;6.70;;;1.65;;
49812;SDS011;35706;52.100;5.056;2023-06-05T04:29:20;4.20;;;1.70;;
49812;SDS011;35706;52.100;5.056;2023-06-05T04:30:20;5.30;;;1.58;;
49812;SDS011;35706;52.100;5.056;2023-06-05T04:31:21;5.78;;;1.90;;
49812;SDS011;35706;52.100;5.056;2023-06-05T04:32:23;5.30;;;2.15;;
49812;SDS011;35706;52.100;5.056;2023-06-05T04:33:24;4.00;;;1.90;;
49812;SDS011;35706;52.100;5.056;2023-06-05T04:34:24;5.85;;;2.05;;
49812;SDS011;35706;52.100;5.056;2023-06-05T04:35:25;3.53;;;2.35;;
49812;SDS011;35706;52.100;5.056;2023-06-05T04:36:26;3.30;;;1.85;;
49812;SDS011;35706;52.100;5.056;2023-06-05T04:37:28;5.00;;;1.95;;
49812;SDS011;35706;52.100;5.056;2023-06-05T04:38:28;7.03;;;2.08;;
49812;SDS011;35706;52.100;5.056;2023-06-05T04:39:29;7.97;;;2.63;;
49812;SDS011;35706;52.100;5.056;2023-06-05T04:40:30;3.72;;;2.22;;
49812;SDS011;35706;52.100;5.056;2023-06-05T04:41:31;2.72;;;1.52;;
49812;SDS011;35706;52.100;5.056;2023-06-05T04:42:32;5.97;;;1.60;;
49812;SDS011;35706;52.100;5.056;2023-06-05T04:43:33;6.47;;;1.83;;
49812;SDS011;35706;52.100;5.056;2023-06-05T04:44:33;2.83;;;1.65;;
49812;SDS011;35706;52.100;5.056;2023-06-05T04:45:34;5.97;;;2.08;;
49812;SDS011;35706;52.100;5.056;2023-06-05T04:46:34;7.25;;;1.92;;
49812;SDS011;35706;52.100;5.056;2023-06-05T04:47:38;4.32;;;1.60;;
49812;SDS011;35706;52.100;5.056;2023-06-05T04:48:39;2.40;;;1.50;;
49812;SDS011;35706;52.100;5.056;2023-06-05T04:49:40;5.32;;;1.77;;
49812;SDS011;35706;52.100;5.056;2023-06-05T04:50:40;4.55;;;2.03;;
49812;SDS011;35706;52.100;5.056;2023-06-05T04:51:42;6.28;;;1.73;;
49812;SDS011;35706;52.100;5.056;2023-06-05T04:52:43;2.97;;;1.77;;
49812;SDS011;35706;52.100;5.056;2023-06-05T04:53:44;4.15;;;1.45;;
49812;SDS011;35706;52.100;5.056;2023-06-05T04:54:44;5.93;;;1.60;;
49812;SDS011;35706;52.100;5.056;2023-06-05T04:55:45;2.97;;;1.60;;
49812;SDS011;35706;52.100;5.056;2023-06-05T04:56:45;4.82;;;1.95;;
49812;SDS011;35706;52.100;5.056;2023-06-05T04:57:46;5.82;;;1.92;;
49812;SDS011;35706;52.100;5.056;2023-06-05T04:58:48;4.65;;;2.53;;
49812;SDS011;35706;52.100;5.056;2023-06-05T04:59:50;6.28;;;2.20;;
49812;SDS011;35706;52.100;5.056;2023-06-05T05:00:51;5.32;;;2.25;;
49812;SDS011;35706;52.100;5.056;2023-06-05T05:01:51;6.78;;;2.28;;
49812;SDS011;35706;52.100;5.056;2023-06-05T05:02:51;4.75;;;1.63;;
49812;SDS011;35706;52.100;5.056;2023-06-05T05:03:52;10.07;;;2.00;;
49812;SDS011;35706;52.100;5.056;2023-06-05T05:04:52;3.90;;;1.67;;
49812;SDS011;35706;52.100;5.056;2023-06-05T05:05:52;9.27;;;2.20;;
49812;SDS011;35706;52.100;5.056;2023-06-05T05:06:52;5.93;;;1.98;;
49812;SDS011;35706;52.100;5.056;2023-06-05T05:07:53;2.88;;;1.42;;
49812;SDS011;35706;52.100;5.056;2023-06-05T05:08:53;4.97;;;2.05;;
49812;SDS011;35706;52.100;5.056;2023-06-05T05:09:54;3.30;;;2.05;;
49812;SDS011;35706;52.100;5.056;2023-06-05T05:10:54;6.40;;;1.65;;
49812;SDS011;35706;52.100;5.056;2023-06-05T05:11:54;9.45;;;1.92;;
49812;SDS011;35706;52.100;5.056;2023-06-05T05:12:55;8.30;;;1.83;;
49812;SDS011;35706;52.100;5.056;2023-06-05T05:13:55;7.95;;;1.88;;
49812;SDS011;35706;52.100;5.056;2023-06-05T05:14:55;6.93;;;2.28;;
49812;SDS011;35706;52.100;5.056;2023-06-05T05:15:56;4.00;;;2.13;;
49812;SDS011;35706;52.100;5.056;2023-06-05T05:16:56;6.63;;;1.83;;
49812;SDS011;35706;52.100;5.056;2023-06-05T05:17:58;9.27;;;1.90;;
49812;SDS011;35706;52.100;5.056;2023-06-05T05:18:58;7.10;;;1.63;;
49812;SDS011;35706;52.100;5.056;2023-06-05T05:19:58;7.25;;;1.85;;
49812;SDS011;35706;52.100;5.056;2023-06-05T05:20:59;5.18;;;1.73;;
49812;SDS011;35706;52.100;5.056;2023-06-05T05:22:00;7.75;;;2.00;;
49812;SDS011;35706;52.100;5.056;2023-06-05T05:23:00;5.25;;;1.77;;
49812;SDS011;35706;52.100;5.056;2023-06-05T05:24:01;4.93;;;1.60;;
49812;SDS011;35706;52.100;5.056;2023-06-05T05:25:01;6.40;;;2.15;;
49812;SDS011;35706;52.100;5.056;2023-06-05T05:26:02;8.02;;;1.83;;
49812;SDS011;35706;52.100;5.056;2023-06-05T05:27:03;4.22;;;1.67;;
49812;SDS011;35706;52.100;5.056;2023-06-05T05:28:04;6.63;;;2.60;;
49812;SDS011;35706;52.100;5.056;2023-06-05T05:29:05;8.15;;;1.55;;
49812;SDS011;35706;52.100;5.056;2023-06-05T05:30:06;5.38;;;1.77;;
49812;SDS011;35706;52.100;5.056;2023-06-05T05:31:07;10.20;;;2.80;;
49812;SDS011;35706;52.100;5.056;2023-06-05T05:32:07;5.53;;;2.22;;
49812;SDS011;35706;52.100;5.056;2023-06-05T05:33:07;9.57;;;2.38;;
49812;SDS011;35706;52.100;5.056;2023-06-05T05:34:07;6.13;;;1.83;;
49812;SDS011;35706;52.100;5.056;2023-06-05T05:35:08;4.28;;;2.05;;
49812;SDS011;35706;52.100;5.056;2023-06-05T05:36:08;8.82;;;2.60;;
49812;SDS011;35706;52.100;5.056;2023-06-05T05:37:09;9.30;;;2.00;;
49812;SDS011;35706;52.100;5.056;2023-06-05T05:38:09;2.97;;;1.83;;
49812;SDS011;35706;52.100;5.056;2023-06-05T05:39:10;5.93;;;2.00;;
49812;SDS011;35706;52.100;5.056;2023-06-05T05:40:10;6.03;;;1.88;;
49812;SDS011;35706;52.100;5.056;2023-06-05T05:41:11;14.95;;;2.28;;
49812;SDS011;35706;52.100;5.056;2023-06-05T05:42:11;5.30;;;2.75;;
49812;SDS011;35706;52.100;5.056;2023-06-05T05:43:12;13.15;;;2.58;;
49812;SDS011;35706;52.100;5.056;2023-06-05T05:44:12;4.28;;;1.80;;
49812;SDS011;35706;52.100;5.056;2023-06-05T05:45:12;8.52;;;2.47;;
49812;SDS011;35706;52.100;5.056;2023-06-05T05:46:13;9.57;;;2.42;;
49812;SDS011;35706;52.100;5.056;2023-06-05T05:47:13;5.10;;;2.22;;
49812;SDS011;35706;52.100;5.056;2023-06-05T05:48:15;4.55;;;3.35;;
49812;SDS011;35706;52.100;5.056;2023-06-05T05:49:15;5.53;;;2.88;;
49812;SDS011;35706;52.100;5.056;2023-06-05T05:50:15;5.93;;;2.88;;
49812;SDS011;35706;52.100;5.056;2023-06-05T05:51:16;9.15;;;3.03;;
49812;SDS011;35706;52.100;5.056;2023-06-05T05:52:16;10.60;;;2.95;;
49812;SDS011;35706;52.100;5.056;2023-06-05T05:53:20;8.95;;;2.75;;
49812;SDS011;35706;52.100;5.056;2023-06-05T05:54:20;11.13;;;2.67;;
49812;SDS011;35706;52.100;5.056;2023-06-05T05:55:26;7.57;;;2.80;;
49812;SDS011;35706;52.100;5.056;2023-06-05T05:56:27;6.47;;;3.20;;
49812;SDS011;35706;52.100;5.056;2023-06-05T05:57:28;6.53;;;2.50;;
49812;SDS011;35706;52.100;5.056;2023-06-05T05:58:29;3.70;;;3.10;;
49812;SDS011;35706;52.100;5.056;2023-06-05T05:59:30;4.18;;;2.72;;
49812;SDS011;35706;52.100;5.056;2023-06-05T06:00:30;6.35;;;2.95;;
49812;SDS011;35706;52.100;5.056;2023-06-05T06:01:31;17.35;;;3.58;;
49812;SDS011;35706;52.100;5.056;2023-06-05T06:02:32;12.48;;;3.33;;
49812;SDS011;35706;52.100;5.056;2023-06-05T06:03:32;6.90;;;2.90;;
49812;SDS011;35706;52.100;5.056;2023-06-05T06:04:37;4.85;;;2.50;;
49812;SDS011;35706;52.100;5.056;2023-06-05T06:05:39;7.07;;;3.17;;
49812;SDS011;35706;52.100;5.056;2023-06-05T06:06:39;3.83;;;3.03;;
49812;SDS011;35706;52.100;5.056;2023-06-05T06:07:40;8.73;;;3.53;;
49812;SDS011;35706;52.100;5.056;2023-06-05T06:08:41;12.20;;;3.83;;
49812;SDS011;35706;52.100;5.056;2023-06-05T06:09:42;8.60;;;3.58;;
49812;SDS011;35706;52.100;5.056;2023-06-05T06:10:42;8.75;;;3.83;;
49812;SDS011;35706;52.100;5.056;2023-06-05T06:11:43;7.25;;;4.03;;
49812;SDS011;35706;52.100;5.056;2023-06-05T06:12:44;8.57;;;4.15;;
49812;SDS011;35706;52.100;5.056;2023-06-05T06:13:45;8.93;;;4.40;;